createdAt,value
2023-05-01T00:00:09.982Z,94935.00
2023-05-01T00:01:10.165Z,94933.00
2023-05-01T00:02:10.084Z,94935.00
2023-05-01T00:03:10.298Z,94933.00
2023-05-01T00:04:10.538Z,94935.00
2023-05-01T00:05:10.300Z,94931.00
2023-05-01T00:06:10.294Z,94931.00
2023-05-01T00:07:10.290Z,94931.00
2023-05-01T00:08:10.342Z,94931.00
2023-05-01T00:09:10.373Z,94929.00
2023-05-01T00:10:10.419Z,94929.00
2023-05-01T00:11:10.470Z,94925.00
2023-05-01T00:12:10.531Z,94925.00
2023-05-01T00:13:10.520Z,94927.00
2023-05-01T00:14:10.597Z,94927.00
2023-05-01T00:15:10.659Z,94927.00
2023-05-01T00:16:10.748Z,94925.00
2023-05-01T00:17:10.717Z,94927.00
2023-05-01T00:18:10.835Z,94925.00
2023-05-01T00:19:10.822Z,94925.00
2023-05-01T00:20:10.864Z,94927.00
2023-05-01T00:21:10.907Z,94925.00
2023-05-01T00:22:10.958Z,94923.00
2023-05-01T00:23:10.995Z,94925.00
2023-05-01T00:24:11.050Z,94927.00
2023-05-01T00:25:11.068Z,94925.00
2023-05-01T00:26:11.450Z,94925.00
2023-05-01T00:27:11.173Z,94927.00
2023-05-01T00:28:11.200Z,94927.00
2023-05-01T00:29:11.257Z,94923.00
2023-05-01T00:30:11.281Z,94921.00
2023-05-01T00:31:11.382Z,94919.00
2023-05-01T00:32:11.501Z,94919.00
2023-05-01T00:33:11.507Z,94919.00
2023-05-01T00:34:11.532Z,94919.00
2023-05-01T00:35:11.510Z,94917.00
2023-05-01T00:36:11.577Z,94917.00
2023-05-01T00:37:11.596Z,94915.00
2023-05-01T00:38:11.692Z,94913.00
2023-05-01T00:39:11.744Z,94915.00
2023-05-01T00:40:11.756Z,94917.00
2023-05-01T00:41:11.802Z,94919.00
2023-05-01T00:42:11.848Z,94921.00
2023-05-01T00:43:11.895Z,94923.00
2023-05-01T00:44:11.920Z,94917.00
2023-05-01T00:45:11.955Z,94917.00
2023-05-01T00:46:12.082Z,94915.00
2023-05-01T00:47:12.086Z,94915.00
2023-05-01T00:48:12.106Z,94909.00
2023-05-01T00:49:12.154Z,94913.00
2023-05-01T00:50:12.551Z,94913.00
2023-05-01T00:51:12.289Z,94909.00
2023-05-01T00:52:12.321Z,94909.00
2023-05-01T00:53:12.327Z,94909.00
2023-05-01T00:54:12.381Z,94907.00
2023-05-01T00:55:12.448Z,94909.00
2023-05-01T00:56:12.500Z,94909.00
2023-05-01T00:57:12.547Z,94909.00
2023-05-01T00:58:12.890Z,94909.00
2023-05-01T00:59:12.599Z,94903.00
2023-05-01T01:00:12.676Z,94903.00
2023-05-01T01:01:12.784Z,94901.00
2023-05-01T01:02:12.767Z,94899.00
2023-05-01T01:03:12.828Z,94899.00
2023-05-01T01:04:12.897Z,94901.00
2023-05-01T01:05:12.891Z,94901.00
2023-05-01T01:06:13.054Z,94897.00
2023-05-01T01:07:13.026Z,94899.00
2023-05-01T01:08:13.042Z,94895.00
2023-05-01T01:09:13.072Z,94895.00
2023-05-01T01:10:13.124Z,94893.00
2023-05-01T01:11:13.153Z,94897.00
2023-05-01T01:12:13.182Z,94895.00
2023-05-01T01:13:13.225Z,94897.00
2023-05-01T01:14:13.252Z,94893.00
2023-05-01T01:15:13.281Z,94895.00
2023-05-01T01:16:13.379Z,94891.00
2023-05-01T01:17:13.916Z,94884.00
2023-05-01T01:18:13.455Z,94891.00
2023-05-01T01:19:13.449Z,94891.00
2023-05-01T01:20:13.520Z,94891.00
2023-05-01T01:21:13.515Z,94884.00
2023-05-01T01:22:13.574Z,94891.00
2023-05-01T01:23:13.584Z,94884.00
2023-05-01T01:24:13.701Z,94884.00
2023-05-01T01:25:13.657Z,94893.00
2023-05-01T01:26:13.686Z,94895.00
2023-05-01T01:27:13.717Z,94891.00
2023-05-01T01:28:13.730Z,94891.00
2023-05-01T01:29:13.792Z,94884.00
2023-05-01T01:30:13.775Z,94891.00
2023-05-01T01:31:14.229Z,94893.00
2023-05-01T01:32:13.860Z,94893.00
2023-05-01T01:33:13.888Z,94893.00
2023-05-01T01:34:13.885Z,94893.00
2023-05-01T01:35:13.937Z,94893.00
2023-05-01T01:36:13.963Z,94891.00
2023-05-01T01:37:13.986Z,94882.00
2023-05-01T01:38:13.990Z,94882.00
2023-05-01T01:39:14.030Z,94880.00
2023-05-01T01:40:14.041Z,94882.00
2023-05-01T01:41:14.082Z,94882.00
2023-05-01T01:42:14.113Z,94880.00
2023-05-01T01:43:14.115Z,94882.00
2023-05-01T01:44:14.155Z,94878.00
2023-05-01T01:45:14.187Z,94878.00
2023-05-01T01:46:14.243Z,94876.00
2023-05-01T01:47:14.236Z,94878.00
2023-05-01T01:48:14.296Z,94876.00
2023-05-01T01:49:14.308Z,94874.00
2023-05-01T01:50:14.338Z,94872.00
2023-05-01T01:51:14.384Z,94872.00
2023-05-01T01:52:14.351Z,94870.00
2023-05-01T01:53:14.425Z,94870.00
2023-05-01T01:54:14.428Z,94870.00
2023-05-01T01:55:14.448Z,94870.00
2023-05-01T01:56:14.488Z,94872.00
2023-05-01T01:57:14.498Z,94872.00
2023-05-01T01:58:14.500Z,94870.00
2023-05-01T01:59:14.501Z,94868.00
2023-05-01T02:00:14.517Z,94866.00
2023-05-01T02:01:14.660Z,94868.00
2023-05-01T02:02:14.641Z,94868.00
2023-05-01T02:03:14.723Z,94870.00
2023-05-01T02:04:14.805Z,94870.00
2023-05-01T02:05:14.979Z,94868.00
2023-05-01T02:06:14.737Z,94864.00
2023-05-01T02:07:14.682Z,94862.00
2023-05-01T02:08:14.715Z,94864.00
2023-05-01T02:09:14.718Z,94864.00
2023-05-01T02:10:14.729Z,94866.00
2023-05-01T02:11:14.811Z,94864.00
2023-05-01T02:12:14.795Z,94862.00
2023-05-01T02:13:14.838Z,94864.00
2023-05-01T02:14:14.810Z,94864.00
2023-05-01T02:15:14.816Z,94862.00
2023-05-01T02:16:14.886Z,94862.00
2023-05-01T02:17:14.893Z,94858.00
2023-05-01T02:18:15.907Z,94860.00
2023-05-01T02:19:14.887Z,94858.00
2023-05-01T02:20:14.910Z,94860.00
2023-05-01T02:21:14.965Z,94860.00
2023-05-01T02:22:14.989Z,94858.00
2023-05-01T02:23:14.955Z,94854.00
2023-05-01T02:24:14.987Z,94850.00
2023-05-01T02:25:15.024Z,94850.00
2023-05-01T02:26:15.006Z,94854.00
2023-05-01T02:27:15.029Z,94854.00
2023-05-01T02:28:15.042Z,94854.00
2023-05-01T02:29:15.064Z,94852.00
2023-05-01T02:30:15.066Z,94848.00
2023-05-01T02:31:15.135Z,94846.00
2023-05-01T02:32:15.099Z,94850.00
2023-05-01T02:33:15.101Z,94848.00
2023-05-01T02:34:15.154Z,94843.00
2023-05-01T02:35:15.175Z,94845.00
2023-05-01T02:36:15.209Z,94846.00
2023-05-01T02:37:15.188Z,94850.00
2023-05-01T02:38:15.207Z,94848.00
2023-05-01T02:39:15.210Z,94848.00
2023-05-01T02:40:15.273Z,94848.00
2023-05-01T02:41:15.300Z,94848.00
2023-05-01T02:42:15.245Z,94846.00
2023-05-01T02:43:15.302Z,94846.00
2023-05-01T02:44:15.306Z,94839.00
2023-05-01T02:45:15.313Z,94845.00
2023-05-01T02:46:15.385Z,94845.00
2023-05-01T02:47:15.426Z,94839.00
2023-05-01T02:48:15.429Z,94841.00
2023-05-01T02:49:15.428Z,94839.00
2023-05-01T02:50:15.440Z,94837.00
2023-05-01T02:51:15.454Z,94837.00
2023-05-01T02:52:15.439Z,94837.00
2023-05-01T02:53:15.465Z,94835.00
2023-05-01T02:54:15.473Z,94835.00
2023-05-01T02:55:15.499Z,94833.00
2023-05-01T02:56:15.514Z,94831.00
2023-05-01T02:57:15.531Z,94833.00
2023-05-01T02:58:15.543Z,94831.00
2023-05-01T02:59:15.566Z,94833.00
2023-05-01T03:00:15.596Z,94833.00
2023-05-01T03:01:15.632Z,94831.00
2023-05-01T03:02:15.576Z,94831.00
2023-05-01T03:03:15.764Z,94829.00
2023-05-01T03:04:15.720Z,94829.00
2023-05-01T03:05:15.697Z,94829.00
2023-05-01T03:06:15.766Z,94829.00
2023-05-01T03:07:15.724Z,94833.00
2023-05-01T03:08:15.740Z,94831.00
2023-05-01T03:09:15.747Z,94833.00
2023-05-01T03:10:15.764Z,94831.00
2023-05-01T03:11:15.790Z,94831.00
2023-05-01T03:12:15.791Z,94827.00
2023-05-01T03:13:15.852Z,94827.00
2023-05-01T03:14:15.881Z,94829.00
2023-05-01T03:15:15.876Z,94827.00
2023-05-01T03:16:15.935Z,94825.00
2023-05-01T03:17:15.897Z,94823.00
2023-05-01T03:18:15.912Z,94825.00
2023-05-01T03:19:16.840Z,94821.00
2023-05-01T03:20:15.941Z,94819.00
2023-05-01T03:21:15.978Z,94821.00
2023-05-01T03:22:15.950Z,94821.00
2023-05-01T03:23:16.004Z,94821.00
2023-05-01T03:24:16.164Z,94819.00
2023-05-01T03:25:16.053Z,94819.00
2023-05-01T03:26:16.054Z,94817.00
2023-05-01T03:27:16.061Z,94817.00
2023-05-01T03:28:16.089Z,94817.00
2023-05-01T03:29:16.095Z,94817.00
2023-05-01T03:30:16.102Z,94817.00
2023-05-01T03:31:16.163Z,94817.00
2023-05-01T03:32:16.198Z,94815.00
2023-05-01T03:33:16.182Z,94815.00
2023-05-01T03:34:16.169Z,94813.00
2023-05-01T03:35:16.275Z,94813.00
2023-05-01T03:36:16.240Z,94811.00
2023-05-01T03:37:16.243Z,94813.00
2023-05-01T03:38:16.259Z,94811.00
2023-05-01T03:39:16.237Z,94815.00
2023-05-01T03:40:16.259Z,94813.00
2023-05-01T03:41:16.654Z,94811.00
2023-05-01T03:42:16.332Z,94807.00
2023-05-01T03:43:16.344Z,94805.00
2023-05-01T03:44:16.331Z,94803.00
2023-05-01T03:45:16.369Z,94805.00
2023-05-01T03:46:16.485Z,94805.00
2023-05-01T03:47:16.419Z,94807.00
2023-05-01T03:48:16.426Z,94807.00
2023-05-01T03:49:16.458Z,94807.00
2023-05-01T03:50:16.510Z,94803.00
2023-05-01T03:51:16.534Z,94805.00
2023-05-01T03:52:16.520Z,94801.00
2023-05-01T03:53:16.539Z,94801.00
2023-05-01T03:54:16.575Z,94801.00
2023-05-01T03:55:16.622Z,94799.00
2023-05-01T03:56:16.640Z,94803.00
2023-05-01T03:57:16.646Z,94799.00
2023-05-01T03:58:16.672Z,94799.00
2023-05-01T03:59:16.699Z,94799.00
2023-05-01T04:00:16.701Z,94799.00
2023-05-01T04:01:16.712Z,94797.00
2023-05-01T04:02:16.767Z,94797.00
2023-05-01T04:03:16.839Z,94799.00
2023-05-01T04:04:16.826Z,94797.00
2023-05-01T04:05:16.823Z,94797.00
2023-05-01T04:06:16.892Z,94799.00
2023-05-01T04:07:16.837Z,94797.00
2023-05-01T04:08:16.861Z,94795.00
2023-05-01T04:09:16.898Z,94795.00
2023-05-01T04:10:16.928Z,94795.00
2023-05-01T04:11:16.939Z,94795.00
2023-05-01T04:12:16.968Z,94795.00
2023-05-01T04:13:16.952Z,94797.00
2023-05-01T04:14:16.971Z,94795.00
2023-05-01T04:15:17.031Z,94795.00
2023-05-01T04:16:17.053Z,94791.00
2023-05-01T04:17:17.076Z,94795.00
2023-05-01T04:18:17.130Z,94795.00
2023-05-01T04:19:17.119Z,94795.00
2023-05-01T04:20:17.160Z,94795.00
2023-05-01T04:21:17.165Z,94797.00
2023-05-01T04:22:17.155Z,94797.00
2023-05-01T04:23:17.191Z,94797.00
2023-05-01T04:24:17.250Z,94795.00
2023-05-01T04:25:17.243Z,94795.00
2023-05-01T04:26:17.269Z,94795.00
2023-05-01T04:27:17.261Z,94791.00
2023-05-01T04:28:17.258Z,94793.00
2023-05-01T04:29:17.311Z,94793.00
2023-05-01T04:30:17.319Z,94791.00
2023-05-01T04:31:17.453Z,94791.00
2023-05-01T04:32:17.393Z,94791.00
2023-05-01T04:33:17.414Z,94790.00
2023-05-01T04:34:17.402Z,94790.00
2023-05-01T04:35:17.467Z,94795.00
2023-05-01T04:36:17.486Z,94793.00
2023-05-01T04:37:17.473Z,94793.00
2023-05-01T04:38:17.909Z,94791.00
2023-05-01T04:39:17.544Z,94790.00
2023-05-01T04:40:17.581Z,94790.00
2023-05-01T04:41:17.598Z,94790.00
2023-05-01T04:42:17.637Z,94790.00
2023-05-01T04:43:17.627Z,94791.00
2023-05-01T04:44:17.657Z,94791.00
2023-05-01T04:45:17.690Z,94790.00
2023-05-01T04:46:17.811Z,94790.00
2023-05-01T04:47:17.766Z,94790.00
2023-05-01T04:48:17.848Z,94790.00
2023-05-01T04:49:17.789Z,94793.00
2023-05-01T04:50:17.819Z,94791.00
2023-05-01T04:51:17.831Z,94791.00
2023-05-01T04:52:17.879Z,94791.00
2023-05-01T04:53:17.880Z,94793.00
2023-05-01T04:54:17.885Z,94793.00
2023-05-01T04:55:17.894Z,94793.00
2023-05-01T04:56:17.958Z,94795.00
2023-05-01T04:57:17.936Z,94793.00
2023-05-01T04:58:17.992Z,94795.00
2023-05-01T04:59:18.006Z,94797.00
2023-05-01T05:00:17.988Z,94797.00
2023-05-01T05:02:44.556Z,94799.00
2023-05-01T05:03:36.959Z,94797.00
2023-05-01T05:04:36.873Z,94801.00
2023-05-01T05:05:36.901Z,94799.00
2023-05-01T05:06:36.847Z,94801.00
2023-05-01T05:07:36.842Z,94799.00
2023-05-01T05:08:36.815Z,94799.00
2023-05-01T05:09:36.849Z,94797.00
2023-05-01T05:10:36.800Z,94799.00
2023-05-01T05:11:36.821Z,94801.00
2023-05-01T05:12:36.811Z,94803.00
2023-05-01T05:13:36.790Z,94805.00
2023-05-01T05:14:36.771Z,94803.00
2023-05-01T05:15:36.755Z,94803.00
2023-05-01T05:16:36.788Z,94805.00
2023-05-01T05:17:36.860Z,94805.00
2023-05-01T05:18:36.746Z,94801.00
2023-05-01T05:19:36.778Z,94801.00
2023-05-01T05:20:36.715Z,94799.00
2023-05-01T05:21:36.724Z,94803.00
2023-05-01T05:22:36.744Z,94799.00
2023-05-01T05:23:36.704Z,94797.00
2023-05-01T05:24:36.770Z,94795.00
2023-05-01T05:25:36.748Z,94797.00
2023-05-01T05:26:36.804Z,94793.00
2023-05-01T05:27:36.821Z,94797.00
2023-05-01T05:28:36.838Z,94795.00
2023-05-01T05:29:36.845Z,94799.00
2023-05-01T05:30:36.885Z,94797.00
2023-05-01T05:31:37.005Z,94797.00
2023-05-01T05:32:36.968Z,94795.00
2023-05-01T05:33:36.937Z,94795.00
2023-05-01T05:34:37.003Z,94799.00
2023-05-01T05:35:37.008Z,94795.00
2023-05-01T05:36:37.052Z,94799.00
2023-05-01T05:37:37.107Z,94799.00
2023-05-01T05:38:37.089Z,94797.00
2023-05-01T05:39:37.100Z,94799.00
2023-05-01T05:40:37.153Z,94799.00
2023-05-01T05:41:37.192Z,94801.00
2023-05-01T05:42:37.192Z,94803.00
2023-05-01T05:43:37.197Z,94803.00
2023-05-01T05:44:37.231Z,94801.00
2023-05-01T05:46:56.568Z,94803.00
2023-05-01T05:47:56.134Z,94801.00
2023-05-01T05:48:56.192Z,94801.00
2023-05-01T05:49:56.212Z,94803.00
2023-05-01T05:50:56.100Z,94801.00
2023-05-01T05:51:56.089Z,94801.00
2023-05-01T05:52:56.043Z,94799.00
2023-05-01T05:53:56.112Z,94799.00
2023-05-01T05:54:56.165Z,94801.00
2023-05-01T05:55:56.066Z,94803.00
2023-05-01T05:56:56.087Z,94801.00
2023-05-01T05:57:56.024Z,94801.00
2023-05-01T05:58:56.050Z,94801.00
2023-05-01T05:59:56.274Z,94801.00
2023-05-01T06:00:56.071Z,94803.00
2023-05-01T06:01:56.068Z,94805.00
2023-05-01T06:02:56.093Z,94803.00
2023-05-01T06:03:56.054Z,94803.00
2023-05-01T06:04:55.978Z,94803.00
2023-05-01T06:05:56.127Z,94803.00
2023-05-01T06:06:56.076Z,94803.00
2023-05-01T06:07:56.004Z,94803.00
2023-05-01T06:08:55.948Z,94801.00
2023-05-01T06:09:56.102Z,94799.00
2023-05-01T06:10:55.977Z,94799.00
2023-05-01T06:11:55.970Z,94795.00
2023-05-01T06:12:57.958Z,94799.00
2023-05-01T06:13:56.919Z,94797.00
2023-05-01T06:14:55.954Z,94797.00
2023-05-01T06:15:55.995Z,94797.00
2023-05-01T06:16:55.894Z,94797.00
2023-05-01T06:17:55.984Z,94795.00
2023-05-01T06:18:55.865Z,94797.00
2023-05-01T06:19:56.148Z,94795.00
2023-05-01T06:20:55.887Z,94795.00
2023-05-01T06:21:55.936Z,94797.00
2023-05-01T06:22:55.836Z,94795.00
2023-05-01T06:23:55.852Z,94793.00
2023-05-01T06:24:55.856Z,94793.00
2023-05-01T06:25:55.856Z,94793.00
2023-05-01T06:26:55.862Z,94791.00
2023-05-01T06:27:55.834Z,94793.00
2023-05-01T06:28:55.849Z,94793.00
2023-05-01T06:29:56.045Z,94795.00
2023-05-01T06:30:55.865Z,94795.00
2023-05-01T06:31:56.000Z,94795.00
2023-05-01T06:32:55.938Z,94797.00
2023-05-01T06:33:56.019Z,94795.00
2023-05-01T06:34:55.944Z,94791.00
2023-05-01T06:35:55.997Z,94790.00
2023-05-01T06:36:56.081Z,94788.00
2023-05-01T06:37:56.139Z,94786.00
2023-05-01T06:38:56.112Z,94784.00
2023-05-01T06:39:56.284Z,94786.00
2023-05-01T06:40:56.129Z,94788.00
2023-05-01T06:41:56.178Z,94788.00
2023-05-01T06:42:56.241Z,94788.00
2023-05-01T06:43:56.192Z,94790.00
2023-05-01T06:44:56.279Z,94790.00
2023-05-01T06:45:56.338Z,94790.00
2023-05-01T06:46:56.388Z,94788.00
2023-05-01T06:47:56.419Z,94788.00
2023-05-01T06:48:56.381Z,94791.00
2023-05-01T06:49:56.620Z,94791.00
2023-05-01T06:50:56.500Z,94791.00
2023-05-01T06:51:56.450Z,94793.00
2023-05-01T06:52:56.512Z,94793.00
2023-05-01T06:53:56.539Z,94791.00
2023-05-01T06:54:56.535Z,94791.00
2023-05-01T06:55:56.602Z,94791.00
2023-05-01T06:56:56.682Z,94793.00
2023-05-01T06:57:56.650Z,94793.00
2023-05-01T06:58:56.683Z,94791.00
2023-05-01T06:59:56.984Z,94793.00
2023-05-01T07:00:56.779Z,94793.00
2023-05-01T07:01:56.900Z,94795.00
2023-05-01T07:02:57.122Z,94791.00
2023-05-01T07:03:56.843Z,94790.00
2023-05-01T07:04:56.928Z,94791.00
2023-05-01T07:05:56.953Z,94790.00
2023-05-01T07:06:56.947Z,94788.00
2023-05-01T07:08:01.297Z,94786.00
2023-05-01T07:08:56.973Z,94788.00
2023-05-01T07:09:57.159Z,94786.00
2023-05-01T07:10:56.909Z,94791.00
2023-05-01T07:11:56.891Z,94791.00
2023-05-01T07:12:56.891Z,94791.00
2023-05-01T07:13:56.894Z,94793.00
2023-05-01T07:14:56.886Z,94790.00
2023-05-01T07:15:58.076Z,94790.00
2023-05-01T07:16:56.943Z,94791.00
2023-05-01T07:17:56.875Z,94790.00
2023-05-01T07:18:56.813Z,94791.00
2023-05-01T07:19:57.022Z,94793.00
2023-05-01T07:20:56.836Z,94790.00
2023-05-01T07:21:56.810Z,94793.00
2023-05-01T07:22:56.850Z,94793.00
2023-05-01T07:23:56.865Z,94793.00
2023-05-01T07:24:56.816Z,94795.00
2023-05-01T07:25:56.803Z,94793.00
2023-05-01T07:26:56.868Z,94795.00
2023-05-01T07:27:56.781Z,94793.00
2023-05-01T07:28:56.799Z,94791.00
2023-05-01T07:29:57.020Z,94791.00
2023-05-01T07:30:56.795Z,94790.00
2023-05-01T07:31:56.892Z,94788.00
2023-05-01T07:32:57.285Z,94788.00
2023-05-01T07:33:56.882Z,94788.00
2023-05-01T07:34:56.927Z,94786.00
2023-05-01T07:35:56.978Z,94784.00
2023-05-01T07:36:57.002Z,94782.00
2023-05-01T07:37:57.068Z,94784.00
2023-05-01T07:38:56.997Z,94782.00
2023-05-01T07:39:57.321Z,94782.00
2023-05-01T07:40:57.067Z,94782.00
2023-05-01T07:41:57.134Z,94782.00
2023-05-01T07:42:57.183Z,94784.00
2023-05-01T07:43:57.190Z,94782.00
2023-05-01T07:44:57.194Z,94780.00
2023-05-01T07:45:57.309Z,94780.00
2023-05-01T07:46:57.277Z,94778.00
2023-05-01T07:47:57.303Z,94778.00
2023-05-01T07:48:57.296Z,94776.00
2023-05-01T07:49:57.534Z,94776.00
2023-05-01T07:50:57.340Z,94776.00
2023-05-01T07:51:57.393Z,94780.00
2023-05-01T07:52:57.367Z,94780.00
2023-05-01T07:53:57.365Z,94782.00
2023-05-01T07:54:57.373Z,94782.00
2023-05-01T07:55:57.437Z,94784.00
2023-05-01T07:56:57.442Z,94782.00
2023-05-01T07:57:57.489Z,94782.00
2023-05-01T07:58:57.516Z,94782.00
2023-05-01T07:59:57.933Z,94780.00
2023-05-01T08:00:57.558Z,94778.00
2023-05-01T08:01:57.668Z,94776.00
2023-05-01T08:02:57.674Z,94780.00
2023-05-01T08:03:57.728Z,94776.00
2023-05-01T08:04:57.767Z,94776.00
2023-05-01T08:05:57.703Z,94778.00
2023-05-01T08:06:57.732Z,94776.00
2023-05-01T08:07:57.711Z,94774.00
2023-05-01T08:08:57.683Z,94774.00
2023-05-01T08:10:00.017Z,94772.00
2023-05-01T08:10:57.884Z,94772.00
2023-05-01T08:11:57.899Z,94774.00
2023-05-01T08:12:57.907Z,94770.00
2023-05-01T08:13:57.906Z,94772.00
2023-05-01T08:14:57.920Z,94770.00
2023-05-01T08:15:58.001Z,94772.00
2023-05-01T08:16:57.964Z,94772.00
2023-05-01T08:17:57.995Z,94774.00
2023-05-01T08:18:58.051Z,94772.00
2023-05-01T08:19:58.246Z,94778.00
2023-05-01T08:20:58.078Z,94776.00
2023-05-01T08:21:58.135Z,94774.00
2023-05-01T08:22:58.109Z,94774.00
2023-05-01T08:23:58.144Z,94774.00
2023-05-01T08:24:58.195Z,94772.00
2023-05-01T08:25:58.197Z,94774.00
2023-05-01T08:26:58.205Z,94772.00
2023-05-01T08:27:58.226Z,94768.00
2023-05-01T08:28:58.240Z,94772.00
2023-05-01T08:29:58.456Z,94774.00
2023-05-01T08:30:58.323Z,94774.00
2023-05-01T08:31:58.579Z,94772.00
2023-05-01T08:32:58.895Z,94772.00
2023-05-01T08:33:58.366Z,94770.00
2023-05-01T08:34:58.399Z,94770.00
2023-05-01T08:35:58.369Z,94770.00
2023-05-01T08:36:58.364Z,94770.00
2023-05-01T08:37:58.484Z,94768.00
2023-05-01T08:38:58.454Z,94768.00
2023-05-01T08:39:58.587Z,94764.00
2023-05-01T08:40:58.534Z,94764.00
2023-05-01T08:41:58.553Z,94764.00
2023-05-01T08:42:58.537Z,94764.00
2023-05-01T08:43:58.552Z,94760.00
2023-05-01T08:44:58.581Z,94758.00
2023-05-01T08:45:58.572Z,94758.00
2023-05-01T08:46:58.677Z,94758.00
2023-05-01T08:47:58.714Z,94758.00
2023-05-01T08:48:58.646Z,94758.00
2023-05-01T08:49:58.848Z,94758.00
2023-05-01T08:50:58.621Z,94756.00
2023-05-01T08:51:58.714Z,94754.00
2023-05-01T08:52:58.676Z,94754.00
2023-05-01T08:53:58.722Z,94752.00
2023-05-01T08:54:58.708Z,94754.00
2023-05-01T08:55:58.718Z,94752.00
2023-05-01T08:56:58.721Z,94752.00
2023-05-01T08:57:58.774Z,94750.00
2023-05-01T08:58:58.791Z,94750.00
2023-05-01T08:59:58.876Z,94754.00
2023-05-01T09:00:58.834Z,94754.00
2023-05-01T09:01:58.921Z,94754.00
2023-05-01T09:02:58.861Z,94756.00
2023-05-01T09:03:58.887Z,94758.00
2023-05-01T09:04:58.881Z,94756.00
2023-05-01T09:05:58.967Z,94754.00
2023-05-01T09:06:58.890Z,94752.00
2023-05-01T09:07:58.912Z,94752.00
2023-05-01T09:08:58.981Z,94748.00
2023-05-01T09:09:59.042Z,94745.00
2023-05-01T09:10:59.004Z,94745.00
2023-05-01T09:11:59.050Z,94745.00
2023-05-01T09:12:59.038Z,94747.00
2023-05-01T09:13:58.991Z,94743.00
2023-05-01T09:14:59.053Z,94745.00
2023-05-01T09:15:59.077Z,94747.00
2023-05-01T09:16:59.137Z,94745.00
2023-05-01T09:18:00.227Z,94743.00
2023-05-01T09:18:59.057Z,94745.00
2023-05-01T09:19:59.180Z,94745.00
2023-05-01T09:20:59.077Z,94745.00
2023-05-01T09:21:59.078Z,94743.00
2023-05-01T09:22:59.072Z,94743.00
2023-05-01T09:23:59.097Z,94747.00
2023-05-01T09:24:59.120Z,94743.00
2023-05-01T09:25:59.046Z,94741.00
2023-05-01T09:26:59.102Z,94741.00
2023-05-01T09:27:59.015Z,94739.00
2023-05-01T09:28:58.982Z,94737.00
2023-05-01T09:29:59.232Z,94737.00
2023-05-01T09:30:59.087Z,94733.00
2023-05-01T09:31:59.097Z,94733.00
2023-05-01T09:32:59.079Z,94733.00
2023-05-01T09:33:58.949Z,94731.00
2023-05-01T09:34:59.002Z,94731.00
2023-05-01T09:35:59.009Z,94727.00
2023-05-01T09:36:58.982Z,94723.00
2023-05-01T09:37:58.971Z,94725.00
2023-05-01T09:38:58.979Z,94719.00
2023-05-01T09:39:59.054Z,94719.00
2023-05-01T09:40:58.937Z,94717.00
2023-05-01T09:41:58.976Z,94717.00
2023-05-01T09:42:58.913Z,94715.00
2023-05-01T09:43:58.938Z,94715.00
2023-05-01T09:44:58.922Z,94713.00
2023-05-01T09:45:58.929Z,94713.00
2023-05-01T09:46:58.984Z,94715.00
2023-05-01T09:47:58.960Z,94715.00
2023-05-01T09:48:59.143Z,94711.00
2023-05-01T09:49:59.011Z,94711.00
2023-05-01T09:50:58.868Z,94709.00
2023-05-01T09:51:58.880Z,94707.00
2023-05-01T09:52:58.876Z,94707.00
2023-05-01T09:53:58.840Z,94707.00
2023-05-01T09:54:58.827Z,94705.00
2023-05-01T09:55:58.869Z,94705.00
2023-05-01T09:56:58.864Z,94705.00
2023-05-01T09:57:58.852Z,94703.00
2023-05-01T09:58:58.828Z,94701.00
2023-05-01T09:59:58.836Z,94703.00
2023-05-01T10:00:58.882Z,94701.00
2023-05-01T10:01:59.022Z,94701.00
2023-05-01T10:02:58.851Z,94697.00
2023-05-01T10:03:58.920Z,94697.00
2023-05-01T10:04:58.823Z,94696.00
2023-05-01T10:05:58.794Z,94692.00
2023-05-01T10:06:58.805Z,94692.00
2023-05-01T10:07:58.792Z,94690.00
2023-05-01T10:08:58.748Z,94690.00
2023-05-01T10:10:01.395Z,94688.00
2023-05-01T10:10:58.755Z,94686.00
2023-05-01T10:11:58.805Z,94686.00
2023-05-01T10:12:58.795Z,94686.00
2023-05-01T10:13:58.815Z,94684.00
2023-05-01T10:15:00.475Z,94682.00
2023-05-01T10:15:58.727Z,94680.00
2023-05-01T10:16:58.781Z,94680.00
2023-05-01T10:17:58.770Z,94680.00
2023-05-01T10:18:58.816Z,94682.00
2023-05-01T10:19:59.012Z,94684.00
2023-05-01T10:20:58.743Z,94684.00
2023-05-01T10:21:58.696Z,94682.00
2023-05-01T10:22:58.629Z,94678.00
2023-05-01T10:23:58.679Z,94678.00
2023-05-01T10:24:58.645Z,94680.00
2023-05-01T10:25:59.435Z,94678.00
2023-05-01T10:26:58.703Z,94678.00
2023-05-01T10:27:58.713Z,94676.00
2023-05-01T10:28:58.631Z,94676.00
2023-05-01T10:29:58.854Z,94676.00
2023-05-01T10:30:58.701Z,94676.00
2023-05-01T10:31:58.790Z,94678.00
2023-05-01T10:32:58.677Z,94678.00
2023-05-01T10:33:58.594Z,94674.00
2023-05-01T10:34:58.853Z,94676.00
2023-05-01T10:35:58.568Z,94674.00
2023-05-01T10:36:58.593Z,94674.00
2023-05-01T10:37:58.570Z,94668.00
2023-05-01T10:38:58.543Z,94670.00
2023-05-01T10:39:58.582Z,94670.00
2023-05-01T10:40:58.552Z,94666.00
2023-05-01T10:41:58.644Z,94666.00
2023-05-01T10:42:58.514Z,94662.00
2023-05-01T10:43:58.613Z,94660.00
2023-05-01T10:44:58.630Z,94660.00
2023-05-01T10:45:58.508Z,94656.00
2023-05-01T10:46:58.695Z,94658.00
2023-05-01T10:47:58.524Z,94656.00
2023-05-01T10:48:58.523Z,94658.00
2023-05-01T10:49:58.446Z,94656.00
2023-05-01T10:50:58.649Z,94654.00
2023-05-01T10:51:58.534Z,94654.00
2023-05-01T10:52:58.476Z,94649.00
2023-05-01T10:53:58.492Z,94649.00
2023-05-01T10:54:58.644Z,94647.00
2023-05-01T10:55:58.486Z,94647.00
2023-05-01T10:56:58.461Z,94647.00
2023-05-01T10:57:58.418Z,94643.00
2023-05-01T10:58:58.428Z,94641.00
2023-05-01T10:59:58.419Z,94639.00
2023-05-01T11:00:58.424Z,94637.00
2023-05-01T11:01:58.463Z,94635.00
2023-05-01T11:02:58.491Z,94635.00
2023-05-01T11:03:58.373Z,94627.00
2023-05-01T11:04:58.629Z,94627.00
2023-05-01T11:05:58.545Z,94625.00
2023-05-01T11:06:58.400Z,94627.00
2023-05-01T11:07:58.355Z,94625.00
2023-05-01T11:08:58.349Z,94623.00
2023-05-01T11:09:58.368Z,94625.00
2023-05-01T11:10:58.384Z,94625.00
2023-05-01T11:11:58.320Z,94623.00
2023-05-01T11:12:58.336Z,94623.00
2023-05-01T11:13:58.358Z,94619.00
2023-05-01T11:14:58.477Z,94619.00
2023-05-01T11:15:58.326Z,94617.00
2023-05-01T11:16:58.347Z,94615.00
2023-05-01T11:17:58.300Z,94611.00
2023-05-01T11:18:58.280Z,94613.00
2023-05-01T11:19:58.259Z,94617.00
2023-05-01T11:20:58.256Z,94615.00
2023-05-01T11:21:58.284Z,94615.00
2023-05-01T11:22:58.256Z,94611.00
2023-05-01T11:23:58.249Z,94613.00
2023-05-01T11:24:58.567Z,94611.00
2023-05-01T11:25:58.338Z,94609.00
2023-05-01T11:26:58.260Z,94609.00
2023-05-01T11:27:58.235Z,94607.00
2023-05-01T11:28:58.289Z,94609.00
2023-05-01T11:29:58.241Z,94603.00
2023-05-01T11:30:58.235Z,94603.00
2023-05-01T11:31:58.358Z,94601.00
2023-05-01T11:32:58.344Z,94605.00
2023-05-01T11:33:58.309Z,94603.00
2023-05-01T11:34:58.604Z,94597.00
2023-05-01T11:35:58.275Z,94599.00
2023-05-01T11:36:58.289Z,94596.00
2023-05-01T11:37:58.349Z,94599.00
2023-05-01T11:38:58.294Z,94596.00
2023-05-01T11:39:58.301Z,94594.00
2023-05-01T11:40:58.255Z,94594.00
2023-05-01T11:41:58.283Z,94594.00
2023-05-01T11:42:58.281Z,94594.00
2023-05-01T11:43:58.291Z,94592.00
2023-05-01T11:44:58.425Z,94594.00
2023-05-01T11:45:58.387Z,94594.00
2023-05-01T11:46:58.255Z,94592.00